Time;durP1;ratioP1;P1;durP2;ratioP2;P2;SDS_P1;SDS_P2;PMS_P1;PMS_P2;Temp;Humidity;BMP_temperature;BMP_pressure;BME280_temperature;BME280_humidity;BME280_pressure;Samples;Min_cycle;Max_cycle;Signal;HPM_P1;HPM_P2
2022/11/06 00:01:23;;;;;;;3.55;3.20;;;4.50;99.90;;;;;;4970611;28;20455;-74
2022/11/06 00:03:51;;;;;;;3.40;2.80;;;4.40;99.90;;;;;;4968023;28;20506;-74
2022/11/06 00:09:07;;;;;;;3.30;3.08;;;4.50;99.90;;;;;;4969142;28;20427;-74
2022/11/06 00:11:33;;;;;;;3.83;3.03;;;4.40;99.90;;;;;;4962128;28;20426;-74
2022/11/06 00:14:00;;;;;;;4.10;2.97;;;4.50;99.90;;;;;;4966701;28;20414;-74
2022/11/06 00:16:26;;;;;;;3.10;2.80;;;4.50;99.90;;;;;;4967441;28;20837;-75
2022/11/06 00:18:52;;;;;;;3.20;2.90;;;4.50;99.90;;;;;;4969702;28;20420;-75
2022/11/06 00:21:21;;;;;;;4.50;3.50;;;4.50;99.90;;;;;;4969400;28;20462;-74
2022/11/06 00:23:47;;;;;;;3.53;2.60;;;4.50;99.90;;;;;;4970423;28;20396;-75
2022/11/06 00:26:16;;;;;;;3.70;3.05;;;4.40;99.90;;;;;;4968638;28;20407;-74
2022/11/06 00:28:42;;;;;;;4.40;2.60;;;4.40;99.90;;;;;;4969553;28;20396;-73
2022/11/06 00:31:10;;;;;;;4.00;3.40;;;4.40;99.90;;;;;;4969377;28;20435;-74
2022/11/06 00:33:36;;;;;;;3.03;2.80;;;4.40;99.90;;;;;;4967995;28;20408;-74
2022/11/06 00:36:03;;;;;;;2.63;2.40;;;4.40;99.90;;;;;;4969024;28;20431;-74
2022/11/06 00:38:29;;;;;;;4.28;3.13;;;4.30;99.90;;;;;;4967733;28;20412;-74
2022/11/06 00:40:54;;;;;;;2.70;2.50;;;4.20;99.90;;;;;;4968299;28;20551;-73
2022/11/06 00:43:20;;;;;;;3.10;2.80;;;4.30;99.90;;;;;;4968642;28;20463;-74
2022/11/06 00:45:45;;;;;;;3.10;2.80;;;4.30;99.90;;;;;;4969742;28;20411;-74
2022/11/06 00:48:11;;;;;;;3.20;2.90;;;4.20;99.90;;;;;;4970476;28;20422;-74
2022/11/06 00:50:37;;;;;;;3.90;3.00;;;4.20;99.90;;;;;;4967872;28;20486;-73
2022/11/06 00:53:02;;;;;;;3.70;3.40;;;4.40;99.90;;;;;;4967720;28;20447;-74
2022/11/06 00:55:28;;;;;;;3.30;3.00;;;4.30;99.90;;;;;;4969558;28;20480;-74
2022/11/06 00:57:53;;;;;;;3.10;2.80;;;4.30;99.90;;;;;;4970474;28;20396;-74
2022/11/06 01:00:19;;;;;;;3.60;2.90;;;4.30;99.90;;;;;;4972605;28;20391;-73
2022/11/06 01:02:45;;;;;;;2.80;2.55;;;4.40;99.90;;;;;;4973139;28;20786;-73
2022/11/06 01:05:11;;;;;;;2.70;2.50;;;4.40;99.90;;;;;;4973282;28;20503;-73
2022/11/06 01:07:37;;;;;;;2.70;2.50;;;4.50;99.90;;;;;;4972390;28;20423;-73
2022/11/06 01:10:04;;;;;;;3.28;2.97;;;4.50;99.90;;;;;;4972040;28;20434;-74
2022/11/06 01:12:31;;;;;;;3.10;2.47;;;4.40;99.90;;;;;;4971681;28;20415;-74
2022/11/06 01:14:57;;;;;;;2.70;2.50;;;4.50;99.90;;;;;;4972791;28;20394;-74
2022/11/06 01:17:22;;;;;;;2.90;2.60;;;4.50;99.90;;;;;;4973259;28;20507;-73
2022/11/06 01:19:48;;;;;;;4.50;2.47;;;4.50;99.90;;;;;;4972319;28;20891;-75
2022/11/06 01:22:14;;;;;;;2.60;2.40;;;4.40;99.90;;;;;;4971944;28;20914;-74
2022/11/06 01:24:40;;;;;;;2.80;2.50;;;4.40;99.90;;;;;;4973702;28;20859;-73
2022/11/06 01:27:05;;;;;;;2.78;2.50;;;4.20;99.90;;;;;;4972698;28;20490;-74
2022/11/06 01:29:31;;;;;;;2.80;2.50;;;4.30;99.90;;;;;;4972797;28;20601;-74
2022/11/06 01:31:56;;;;;;;4.90;2.80;;;4.20;99.90;;;;;;4972322;28;20422;-74
2022/11/06 01:34:22;;;;;;;2.70;2.50;;;4.30;99.90;;;;;;4972892;28;20455;-74
2022/11/06 01:36:48;;;;;;;2.50;2.30;;;4.30;99.90;;;;;;4972375;28;20412;-73
2022/11/06 01:39:14;;;;;;;2.73;2.50;;;4.30;99.90;;;;;;4973355;28;20425;-73
2022/11/06 01:41:46;;;;;;;3.13;2.00;;;4.30;99.90;;;;;;4975442;28;20400;-73
2022/11/06 01:44:42;;;;;;;2.70;2.20;;;4.30;99.90;;;;;;4992291;28;20800;-73
2022/11/06 01:47:33;;;;;;;2.47;2.28;;;4.40;99.90;;;;;;4972413;28;20898;-74
2022/11/06 01:50:04;;;;;;;4.20;2.80;;;4.30;99.90;;;;;;4970030;28;20411;-74
2022/11/06 01:52:31;;;;;;;3.17;2.50;;;4.20;99.90;;;;;;4971989;28;20420;-73
2022/11/06 01:55:11;;;;;;;3.30;2.70;;;4.20;99.90;;;;;;4970924;28;20809;-74
2022/11/06 01:57:37;;;;;;;2.72;2.50;;;4.10;99.90;;;;;;4977109;28;20430;-75
2022/11/06 02:00:05;;;;;;;4.15;3.10;;;4.00;99.90;;;;;;4973398;28;20388;-74
2022/11/06 02:02:31;;;;;;;2.83;2.63;;;4.00;99.90;;;;;;4971028;28;20407;-75
2022/11/06 02:04:57;;;;;;;3.10;2.70;;;4.00;99.90;;;;;;4972190;28;20855;-74
2022/11/06 02:07:22;;;;;;;2.72;2.53;;;4.00;99.90;;;;;;4972030;28;20459;-73
2022/11/06 02:09:48;;;;;;;2.78;2.50;;;3.90;99.90;;;;;;4971030;28;20503;-75
2022/11/06 02:12:36;;;;;;;3.75;2.50;;;3.90;99.90;;;;;;4971612;28;20499;-74
2022/11/06 02:15:26;;;;;;;2.38;2.17;;;3.90;99.90;;;;;;4972161;28;20436;-73
2022/11/06 02:18:17;;;;;;;2.70;2.50;;;3.80;99.90;;;;;;4972216;28;20779;-74
2022/11/06 02:20:49;;;;;;;2.72;2.42;;;3.90;99.90;;;;;;4965761;28;20415;-74
2022/11/06 02:23:33;;;;;;;2.67;2.25;;;3.80;99.90;;;;;;4971752;28;20499;-73
2022/11/06 02:26:27;;;;;;;2.80;2.42;;;3.70;99.90;;;;;;4970817;28;20419;-73
2022/11/06 02:28:59;;;;;;;2.80;2.60;;;3.70;99.90;;;;;;4966846;28;20429;-73
2022/11/06 02:31:30;;;;;;;4.15;2.60;;;3.70;99.90;;;;;;4971732;28;20779;-73
2022/11/06 02:34:05;;;;;;;2.92;2.63;;;3.60;99.90;;;;;;4972397;28;20479;-74
2022/11/06 02:36:39;;;;;;;2.95;2.67;;;3.60;99.90;;;;;;4972386;28;20407;-74
2022/11/06 02:39:11;;;;;;;3.58;2.50;;;3.60;99.90;;;;;;4969489;28;20408;-73
2022/11/06 02:41:42;;;;;;;3.10;2.72;;;3.70;99.90;;;;;;4964956;28;20412;-73
2022/11/06 02:44:12;;;;;;;2.75;2.10;;;3.70;99.90;;;;;;4970855;28;20502;-74
2022/11/06 02:46:42;;;;;;;3.75;2.50;;;3.60;99.90;;;;;;4971682;28;20415;-74
2022/11/06 02:49:12;;;;;;;2.70;2.40;;;3.60;99.90;;;;;;4971408;28;20407;-73
2022/11/06 02:51:52;;;;;;;2.67;2.35;;;3.70;99.90;;;;;;4970366;28;20898;-74
2022/11/06 02:54:20;;;;;;;2.40;2.20;;;3.70;99.90;;;;;;4970252;28;20909;-73
2022/11/06 02:56:49;;;;;;;2.50;2.30;;;3.70;99.90;;;;;;4971135;28;20446;-73
2022/11/06 02:59:22;;;;;;;3.80;2.50;;;3.80;99.90;;;;;;4972030;28;20400;-74
2022/11/06 03:01:53;;;;;;;2.60;2.40;;;3.80;99.90;;;;;;4968838;28;20415;-73
2022/11/06 03:04:29;;;;;;;2.30;2.10;;;3.80;99.90;;;;;;4970735;28;20420;-73
2022/11/06 03:07:10;;;;;;;2.70;2.10;;;3.90;99.90;;;;;;4971453;28;20447;-74
2022/11/06 03:09:35;;;;;;;2.20;2.00;;;3.80;99.90;;;;;;4970494;28;20447;-74
2022/11/06 03:12:24;;;;;;;2.97;2.20;;;3.90;99.90;;;;;;4971496;28;20448;-74
2022/11/06 03:15:10;;;;;;;2.42;2.20;;;3.90;99.90;;;;;;4964832;28;20438;-73
2022/11/06 03:17:47;;;;;;;2.28;2.08;;;3.90;99.90;;;;;;4970710;28;20412;-73
2022/11/06 03:20:22;;;;;;;2.30;2.10;;;3.80;99.90;;;;;;4971161;28;20408;-73
2022/11/06 03:23:01;;;;;;;2.67;2.10;;;3.80;99.90;;;;;;4968593;28;20569;-73
2022/11/06 03:25:42;;;;;;;2.20;2.00;;;3.90;99.90;;;;;;4970127;28;20416;-74
2022/11/06 03:28:13;;;;;;;2.35;2.15;;;3.90;99.90;;;;;;4969865;28;20789;-73
2022/11/06 03:30:49;;;;;;;3.05;2.20;;;3.80;99.90;;;;;;4970605;28;20400;-74
2022/11/06 03:33:17;;;;;;;2.58;1.90;;;3.70;99.90;;;;;;4970777;28;20415;-73
2022/11/06 03:36:14;;;;;;;3.25;2.15;;;3.70;99.90;;;;;;4970834;28;20767;-74
2022/11/06 03:38:45;;;;;;;4.10;2.55;;;3.70;99.90;;;;;;4970753;28;20874;-73
2022/11/06 03:41:43;;;;;;;2.53;2.13;;;3.60;99.90;;;;;;4970129;28;20511;-73
2022/11/06 03:44:16;;;;;;;2.13;1.92;;;3.60;99.90;;;;;;4960773;28;20466;-73
2022/11/06 03:46:46;;;;;;;2.38;1.70;;;3.60;99.90;;;;;;4970332;28;20647;-73
2022/11/06 03:49:18;;;;;;;2.92;2.00;;;3.60;99.90;;;;;;4969300;28;20392;-73
2022/11/06 03:51:50;;;;;;;2.58;1.70;;;3.60;99.90;;;;;;4971305;28;20418;-73
2022/11/06 03:54:26;;;;;;;2.38;2.10;;;3.60;99.90;;;;;;4969911;28;20396;-73
2022/11/06 03:56:59;;;;;;;2.00;1.90;;;3.60;99.90;;;;;;4970065;28;20412;-73
2022/11/06 03:59:31;;;;;;;2.05;1.95;;;3.60;99.90;;;;;;4970076;28;20809;-73
2022/11/06 04:01:58;;;;;;;2.72;1.98;;;3.60;99.90;;;;;;4974136;28;20436;-74
2022/11/06 04:04:29;;;;;;;3.07;1.87;;;3.50;99.90;;;;;;4970019;28;20412;-74
2022/11/06 04:07:07;;;;;;;3.35;2.10;;;3.50;99.90;;;;;;4970138;28;20498;-74
2022/11/06 04:15:11;;;;;;;2.60;2.03;;;3.50;99.90;;;;;;4969077;28;20953;-73
2022/11/06 04:17:38;;;;;;;3.80;2.20;;;3.50;99.90;;;;;;4970054;28;20455;-74
2022/11/06 04:20:09;;;;;;;4.00;2.10;;;3.50;99.90;;;;;;4970254;28;20439;-74
2022/11/06 04:22:50;;;;;;;2.72;1.90;;;3.50;99.90;;;;;;4968971;28;20906;-74
2022/11/06 04:28:41;;;;;;;2.92;2.03;;;3.40;99.90;;;;;;4968719;28;20386;-73
2022/11/06 04:31:45;;;;;;;2.60;2.00;;;3.40;99.90;;;;;;4969008;28;20503;-74
2022/11/06 04:34:21;;;;;;;2.10;1.75;;;3.40;99.90;;;;;;4990342;28;21070;-73
2022/11/06 04:37:10;;;;;;;1.98;1.88;;;3.30;99.90;;;;;;4975947;28;20487;-74
2022/11/06 04:39:51;;;;;;;2.20;2.00;;;3.30;99.90;;;;;;4966730;28;20474;-74
2022/11/06 04:42:33;;;;;;;3.35;2.03;;;3.30;99.90;;;;;;4971480;28;20419;-74
2022/11/06 04:45:06;;;;;;;2.15;1.90;;;3.40;99.90;;;;;;4973785;28;20887;-74
2022/11/06 04:47:34;;;;;;;2.00;1.80;;;3.50;99.90;;;;;;4973624;28;20415;-74
2022/11/06 04:50:01;;;;;;;2.40;2.20;;;3.40;99.90;;;;;;4973397;28;20759;-75
2022/11/06 04:52:28;;;;;;;3.10;1.90;;;3.40;99.90;;;;;;4973337;28;20438;-73
2022/11/06 04:54:55;;;;;;;2.20;2.00;;;3.40;99.90;;;;;;4972595;28;20458;-76
2022/11/06 04:57:24;;;;;;;2.65;2.20;;;3.30;99.90;;;;;;4973310;28;20416;-74
2022/11/06 04:59:50;;;;;;;3.60;1.90;;;3.30;99.90;;;;;;4974491;28;20427;-74
2022/11/06 05:02:16;;;;;;;2.20;2.00;;;3.40;99.90;;;;;;4971143;28;20446;-74
2022/11/06 05:04:41;;;;;;;2.20;1.93;;;3.30;99.90;;;;;;4973410;28;20972;-73
2022/11/06 05:07:08;;;;;;;1.80;1.70;;;3.40;99.90;;;;;;4973245;28;20627;-73
2022/11/06 05:09:34;;;;;;;2.00;1.80;;;3.30;99.90;;;;;;4972301;28;20864;-74
2022/11/06 05:12:38;;;;;;;;;;;;;;;;;;;;;
2022/11/06 05:15:04;;;;;;;2.70;2.30;;;3.20;99.90;;;;;;4974702;28;20420;-75
2022/11/06 05:17:30;;;;;;;4.00;2.13;;;3.10;99.90;;;;;;4973072;28;20512;-76
2022/11/06 05:19:55;;;;;;;2.90;1.90;;;3.40;99.90;;;;;;4972877;28;20408;-75
2022/11/06 05:25:05;;;;;;;2.03;1.90;;;3.50;99.90;;;;;;4973093;28;20481;-76
2022/11/06 05:27:31;;;;;;;3.05;1.63;;;3.40;99.90;;;;;;4973075;28;20416;-75
2022/11/06 05:29:56;;;;;;;2.00;1.90;;;3.30;99.90;;;;;;4973927;28;20454;-75
2022/11/06 05:32:22;;;;;;;2.70;1.90;;;3.30;99.90;;;;;;4971057;28;20906;-75
2022/11/06 05:34:47;;;;;;;2.40;1.80;;;3.30;99.90;;;;;;4972856;28;20416;-74
2022/11/06 05:37:13;;;;;;;3.80;2.20;;;3.20;99.90;;;;;;4971723;28;20411;-74
2022/11/06 05:39:38;;;;;;;3.13;2.30;;;3.30;99.90;;;;;;4972499;28;20419;-76
2022/11/06 05:42:04;;;;;;;2.43;2.23;;;3.20;99.90;;;;;;4972408;28;20516;-75
2022/11/06 05:44:29;;;;;;;2.60;2.17;;;3.30;99.90;;;;;;4972454;28;20407;-74
2022/11/06 05:46:56;;;;;;;3.37;2.10;;;3.20;99.90;;;;;;4971598;28;20890;-74
2022/11/06 05:49:21;;;;;;;3.80;2.00;;;3.20;99.90;;;;;;4973471;28;20384;-74
2022/11/06 05:51:47;;;;;;;4.10;2.20;;;3.10;99.90;;;;;;4971282;28;20420;-75
2022/11/06 05:54:13;;;;;;;2.47;2.28;;;3.10;99.90;;;;;;4972881;28;20762;-74
2022/11/06 05:56:39;;;;;;;2.10;1.90;;;3.10;99.90;;;;;;4971511;28;21008;-74
2022/11/06 05:59:05;;;;;;;3.40;2.40;;;3.10;99.90;;;;;;4973039;28;20478;-74
2022/11/06 06:01:30;;;;;;;2.10;1.92;;;3.10;99.90;;;;;;4972306;28;20432;-74
2022/11/06 06:03:56;;;;;;;2.20;2.00;;;3.10;99.90;;;;;;4970489;28;20548;-75
2022/11/06 06:06:22;;;;;;;2.70;2.03;;;3.00;99.90;;;;;;4972044;28;20471;-75
2022/11/06 06:08:47;;;;;;;2.42;2.22;;;2.90;99.90;;;;;;4972237;28;20507;-75
2022/11/06 06:11:13;;;;;;;2.57;2.33;;;2.90;99.90;;;;;;4971953;28;20910;-74
2022/11/06 06:13:38;;;;;;;3.00;2.50;;;2.80;99.90;;;;;;4972856;28;20743;-74
2022/11/06 06:16:04;;;;;;;3.73;2.30;;;2.90;99.90;;;;;;4971500;28;20408;-75
2022/11/06 06:18:29;;;;;;;3.58;2.50;;;2.80;99.90;;;;;;4971944;28;20411;-75
2022/11/06 06:20:58;;;;;;;3.40;2.80;;;2.80;99.90;;;;;;4970991;28;20495;-74
2022/11/06 06:23:24;;;;;;;2.45;2.25;;;2.90;99.90;;;;;;4970063;28;20392;-75
2022/11/06 06:25:49;;;;;;;2.47;2.27;;;3.00;99.90;;;;;;4971045;28;20969;-74
2022/11/06 06:28:15;;;;;;;3.73;2.57;;;3.10;99.90;;;;;;4972783;28;20511;-74
2022/11/06 06:30:40;;;;;;;2.30;2.10;;;3.10;99.90;;;;;;4970754;28;20502;-74
2022/11/06 06:33:06;;;;;;;2.30;2.10;;;3.20;99.90;;;;;;4971210;28;20420;-75
2022/11/06 06:35:32;;;;;;;2.27;2.07;;;3.30;99.90;;;;;;4971328;28;20417;-74
2022/11/06 06:37:58;;;;;;;1.83;1.73;;;3.20;99.90;;;;;;4970513;28;20444;-74
2022/11/06 06:40:25;;;;;;;2.80;2.45;;;3.20;99.90;;;;;;4969838;28;20455;-74
2022/11/06 06:42:50;;;;;;;2.67;2.47;;;3.20;99.90;;;;;;4970940;28;20435;-74
2022/11/06 06:45:16;;;;;;;2.60;2.10;;;3.30;99.90;;;;;;4969426;28;20415;-75
2022/11/06 06:47:42;;;;;;;2.15;1.95;;;3.30;99.90;;;;;;4971016;28;20474;-74
2022/11/06 06:50:08;;;;;;;2.20;2.00;;;3.30;99.90;;;;;;4971559;28;20849;-74
2022/11/06 06:52:33;;;;;;;3.60;2.55;;;3.30;99.90;;;;;;4970609;28;20424;-75
2022/11/06 06:54:59;;;;;;;2.90;2.50;;;3.30;99.90;;;;;;4971625;28;20426;-74
2022/11/06 06:57:24;;;;;;;3.00;2.50;;;3.30;99.90;;;;;;4971027;28;20438;-75
2022/11/06 06:59:50;;;;;;;5.00;2.30;;;3.50;99.90;;;;;;4970087;28;20412;-74
2022/11/06 07:02:15;;;;;;;2.63;2.43;;;3.60;99.90;;;;;;4970461;28;20470;-73
2022/11/06 07:04:41;;;;;;;3.93;3.10;;;3.60;99.90;;;;;;4970509;28;20547;-74
2022/11/06 07:07:06;;;;;;;2.90;2.60;;;3.70;99.90;;;;;;4970150;28;20474;-72
2022/11/06 07:09:32;;;;;;;3.72;2.78;;;3.70;99.90;;;;;;4975755;28;20419;-74
2022/11/06 07:11:58;;;;;;;2.60;2.20;;;3.60;99.90;;;;;;4971926;28;20426;-73
2022/11/06 07:14:24;;;;;;;4.30;2.90;;;3.80;99.90;;;;;;4966958;28;20459;-74
2022/11/06 07:16:49;;;;;;;3.33;2.67;;;3.80;99.90;;;;;;4969001;28;20423;-74
2022/11/06 07:19:15;;;;;;;3.23;2.43;;;3.70;99.90;;;;;;4971992;28;20395;-72
2022/11/06 07:21:40;;;;;;;3.20;2.90;;;3.80;99.90;;;;;;4971694;28;20392;-73
2022/11/06 07:24:06;;;;;;;4.00;2.70;;;3.80;99.90;;;;;;4971562;28;20467;-73
2022/11/06 07:26:31;;;;;;;3.57;2.60;;;3.90;99.90;;;;;;4978128;28;20399;-73
2022/11/06 07:28:57;;;;;;;4.80;2.70;;;4.00;99.90;;;;;;4991392;28;20390;-74
2022/11/06 07:31:22;;;;;;;3.70;3.07;;;4.00;99.90;;;;;;4972240;28;20891;-73
2022/11/06 07:33:48;;;;;;;3.43;2.70;;;4.10;99.90;;;;;;4970576;28;21092;-74
2022/11/06 07:36:14;;;;;;;2.73;2.43;;;4.10;99.90;;;;;;4952642;28;21013;-75
2022/11/06 07:38:41;;;;;;;2.70;2.40;;;4.20;99.90;;;;;;4991536;28;20418;-74
2022/11/06 07:41:11;;;;;;;3.10;2.40;;;4.40;99.90;;;;;;4991082;28;20468;-73
2022/11/06 07:43:37;;;;;;;2.47;2.27;;;4.60;99.90;;;;;;4990825;28;20490;-75
2022/11/06 07:46:07;;;;;;;3.30;2.60;;;4.70;99.90;;;;;;4990969;28;20421;-74
2022/11/06 07:48:33;;;;;;;2.78;2.53;;;4.70;99.90;;;;;;4990754;28;20386;-74
2022/11/06 07:51:02;;;;;;;3.80;3.20;;;4.50;99.90;;;;;;4990601;28;20836;-75
2022/11/06 07:53:27;;;;;;;4.97;3.78;;;4.50;99.90;;;;;;4993621;28;20475;-74
2022/11/06 07:55:54;;;;;;;4.72;4.22;;;4.50;99.90;;;;;;4991346;28;20975;-75
2022/11/06 07:58:21;;;;;;;5.60;3.78;;;4.40;99.90;;;;;;4988986;28;20426;-76
2022/11/06 08:00:51;;;;;;;4.47;3.90;;;4.70;99.90;;;;;;4999358;28;20406;-74
2022/11/06 08:03:17;;;;;;;5.45;3.70;;;4.80;99.90;;;;;;4999893;28;20399;-73
2022/11/06 08:05:43;;;;;;;5.60;4.07;;;5.00;99.90;;;;;;5002076;28;20753;-75
2022/11/06 08:08:09;;;;;;;4.67;3.90;;;4.90;99.90;;;;;;4996132;28;20469;-76
2022/11/06 08:10:39;;;;;;;4.60;4.20;;;4.90;99.90;;;;;;4994864;28;20434;-74
2022/11/06 08:13:07;;;;;;;5.63;4.80;;;4.90;99.90;;;;;;4994111;28;20454;-76
2022/11/06 08:15:33;;;;;;;6.28;5.05;;;5.00;99.90;;;;;;4999758;28;20824;-74
2022/11/06 08:17:59;;;;;;;5.38;4.70;;;4.90;99.90;;;;;;4998570;28;20414;-73
2022/11/06 08:20:25;;;;;;;6.07;5.25;;;4.90;99.90;;;;;;4995684;28;20946;-75
2022/11/06 08:22:50;;;;;;;5.63;5.13;;;4.90;99.90;;;;;;4998637;28;20410;-74
2022/11/06 08:25:16;;;;;;;6.60;5.90;;;4.80;99.90;;;;;;4998865;28;20407;-73
2022/11/06 08:27:41;;;;;;;8.23;6.00;;;4.80;99.90;;;;;;5007826;28;20394;-74
2022/11/06 08:30:08;;;;;;;6.90;5.73;;;4.90;99.90;;;;;;5009972;28;20876;-75
2022/11/06 08:32:33;;;;;;;7.63;6.53;;;4.90;99.90;;;;;;5000739;28;20463;-76
2022/11/06 08:34:59;;;;;;;7.27;6.20;;;5.00;99.90;;;;;;5010448;28;20471;-74
2022/11/06 08:37:24;;;;;;;6.68;6.07;;;5.10;99.90;;;;;;5003033;28;20476;-73
2022/11/06 08:39:50;;;;;;;7.10;6.40;;;4.90;99.90;;;;;;4996950;28;20931;-73
2022/11/06 08:42:15;;;;;;;7.53;6.72;;;5.10;99.90;;;;;;4994417;28;20489;-74
2022/11/06 08:44:41;;;;;;;7.45;6.35;;;5.20;99.90;;;;;;4997676;28;20401;-75
2022/11/06 08:47:07;;;;;;;8.50;6.97;;;5.30;99.90;;;;;;4995605;28;20533;-75
2022/11/06 08:49:33;;;;;;;6.75;6.10;;;5.50;99.90;;;;;;4996919;28;21014;-75
2022/11/06 08:51:58;;;;;;;7.40;6.43;;;5.40;99.90;;;;;;4999644;28;20448;-75
2022/11/06 08:54:24;;;;;;;7.47;6.80;;;5.30;99.90;;;;;;4999064;28;20392;-74
2022/11/06 08:56:49;;;;;;;7.07;6.27;;;5.30;99.90;;;;;;4996868;28;20382;-74
2022/11/06 08:59:15;;;;;;;6.13;5.53;;;5.40;99.90;;;;;;4996868;28;20860;-74
2022/11/06 09:01:40;;;;;;;6.15;5.55;;;5.40;99.90;;;;;;5000644;28;20406;-74
2022/11/06 09:04:06;;;;;;;7.88;6.00;;;5.50;99.90;;;;;;4998680;28;20441;-74
2022/11/06 09:06:32;;;;;;;7.07;6.22;;;5.70;99.90;;;;;;4994889;28;20414;-74
2022/11/06 09:08:58;;;;;;;6.47;5.88;;;6.10;99.90;;;;;;4996363;28;20398;-75
2022/11/06 09:11:24;;;;;;;6.57;5.97;;;6.10;99.90;;;;;;4994719;28;20428;-75
2022/11/06 09:13:49;;;;;;;6.50;5.60;;;6.20;99.90;;;;;;4993948;28;20413;-74
2022/11/06 09:16:15;;;;;;;6.20;5.60;;;6.20;99.90;;;;;;4996019;28;20410;-74
2022/11/06 09:18:41;;;;;;;7.50;5.90;;;6.30;99.90;;;;;;4994527;28;20547;-75
2022/11/06 09:21:06;;;;;;;5.90;5.30;;;6.50;99.90;;;;;;4991036;28;20901;-74
2022/11/06 09:23:32;;;;;;;4.93;4.43;;;6.70;99.90;;;;;;4991263;28;20422;-74
2022/11/06 09:25:57;;;;;;;5.40;4.47;;;6.80;99.90;;;;;;4989883;28;20418;-74
2022/11/06 09:28:23;;;;;;;5.30;4.07;;;6.90;99.90;;;;;;4995859;28;20414;-74
2022/11/06 09:30:49;;;;;;;7.70;4.20;;;6.90;99.90;;;;;;4992063;28;20506;-73
2022/11/06 09:33:14;;;;;;;5.60;5.10;;;6.90;99.90;;;;;;4993071;28;20489;-75
2022/11/06 09:35:40;;;;;;;5.95;5.35;;;7.00;99.90;;;;;;4990619;28;20434;-74
2022/11/06 09:38:09;;;;;;;5.78;5.25;;;7.20;99.90;;;;;;4993500;28;20416;-74
2022/11/06 09:40:39;;;;;;;5.03;4.53;;;7.20;99.90;;;;;;4995155;28;20379;-73
2022/11/06 09:43:26;;;;;;;4.93;4.43;;;7.20;99.90;;;;;;4992680;28;20473;-74
2022/11/06 09:45:53;;;;;;;5.55;4.15;;;7.30;99.90;;;;;;4988883;28;20764;-74
2022/11/06 09:48:36;;;;;;;6.30;4.47;;;7.50;99.90;;;;;;4991648;28;20405;-74
2022/11/06 09:51:11;;;;;;;3.60;3.30;;;7.70;99.90;;;;;;4990682;28;20421;-75
2022/11/06 09:53:58;;;;;;;4.20;3.13;;;7.80;99.90;;;;;;4989713;28;20493;-75
2022/11/06 09:56:28;;;;;;;60.47;42.03;;;8.00;99.90;;;;;;4988364;28;21020;-74
2022/11/06 09:58:55;;;;;;;5.20;4.70;;;8.20;99.90;;;;;;4992422;28;20792;-74
2022/11/06 10:01:33;;;;;;;3.95;3.63;;;8.50;99.90;;;;;;4991908;28;20776;-74
2022/11/06 10:04:00;;;;;;;64.22;37.22;;;8.50;99.90;;;;;;4991925;28;20488;-74
2022/11/06 10:06:27;;;;;;;3.47;3.17;;;8.80;99.90;;;;;;4989794;28;20769;-77
2022/11/06 10:08:57;;;;;;;3.05;2.75;;;8.90;99.90;;;;;;4992331;28;20418;-74
2022/11/06 10:11:39;;;;;;;2.90;2.60;;;9.00;99.90;;;;;;4992292;28;20435;-74
2022/11/06 10:14:31;;;;;;;2.63;2.40;;;9.40;99.90;;;;;;5006066;28;20814;-75
2022/11/06 10:17:26;;;;;;;2.72;2.53;;;9.30;99.90;;;;;;5011566;28;21536;-75
2022/11/06 10:20:02;;;;;;;3.40;3.10;;;9.40;99.90;;;;;;4978639;28;20873;-75
2022/11/06 10:22:40;;;;;;;3.00;2.65;;;9.40;99.90;;;;;;4999053;28;20414;-75
2022/11/06 10:25:20;;;;;;;3.28;2.97;;;9.40;99.90;;;;;;4990343;28;20495;-75
2022/11/06 10:28:02;;;;;;;3.08;2.88;;;9.50;99.90;;;;;;4994596;28;20501;-75
2022/11/06 10:30:50;;;;;;;3.70;3.40;;;9.60;99.90;;;;;;4990920;28;20506;-77
2022/11/06 10:33:50;;;;;;;3.67;3.38;;;9.60;99.90;;;;;;4993283;28;20749;-75
2022/11/06 10:36:33;;;;;;;4.13;3.60;;;9.40;99.90;;;;;;4990763;28;20398;-76
2022/11/06 10:39:00;;;;;;;4.28;3.88;;;9.30;99.90;;;;;;4995700;28;20461;-75
2022/11/06 10:41:31;;;;;;;3.80;3.50;;;9.50;99.90;;;;;;4991186;28;20843;-75
2022/11/06 10:44:37;;;;;;;4.22;3.53;;;9.40;99.90;;;;;;4984036;28;21245;-74
2022/11/06 10:47:11;;;;;;;4.70;3.83;;;9.50;99.90;;;;;;4982879;28;20424;-75
2022/11/06 10:49:55;;;;;;;4.20;3.80;;;9.60;99.90;;;;;;4986541;28;20410;-75
2022/11/06 10:52:54;;;;;;;4.57;3.80;;;10.20;99.90;;;;;;4989889;28;20423;-74
2022/11/06 10:55:35;;;;;;;5.20;3.90;;;10.10;99.90;;;;;;4989723;28;20931;-74
2022/11/06 10:58:07;;;;;;;4.25;3.85;;;10.10;99.90;;;;;;4988951;28;20386;-74
2022/11/06 11:00:33;;;;;;;4.15;3.75;;;10.90;99.90;;;;;;4988139;28;20422;-75
2022/11/06 11:03:02;;;;;;;5.45;3.45;;;10.90;99.90;;;;;;4990216;28;20394;-74
2022/11/06 11:05:37;;;;;;;4.60;3.50;;;10.90;99.90;;;;;;4990378;28;20838;-74
2022/11/06 11:08:03;;;;;;;4.10;3.70;;;12.00;99.90;;;;;;4991275;28;20414;-76
2022/11/06 11:10:33;;;;;;;3.90;3.45;;;12.30;99.90;;;;;;4991704;28;20418;-76
2022/11/06 11:13:01;;;;;;;4.78;3.60;;;12.00;99.90;;;;;;4989601;28;20407;-76
2022/11/06 11:15:43;;;;;;;4.35;3.60;;;11.80;99.90;;;;;;4991602;28;20406;-75
2022/11/06 11:18:17;;;;;;;40.30;31.30;;;11.30;99.90;;;;;;4990012;28;20414;-74
2022/11/06 11:20:50;;;;;;;3.83;3.42;;;11.20;99.90;;;;;;4981618;28;20402;-75
2022/11/06 11:23:20;;;;;;;3.90;3.60;;;11.00;99.90;;;;;;4987594;28;20769;-74
2022/11/06 11:25:49;;;;;;;4.40;3.13;;;11.30;99.90;;;;;;4983943;28;20425;-73
2022/11/06 11:28:27;;;;;;;4.18;3.60;;;12.30;99.90;;;;;;4993713;28;20409;-75
2022/11/06 11:30:55;;;;;;;3.88;3.50;;;11.80;99.90;;;;;;4990161;28;20468;-74
2022/11/06 11:33:24;;;;;;;4.50;4.10;;;12.30;99.90;;;;;;5008596;28;20400;-75
2022/11/06 11:35:50;;;;;;;5.20;4.23;;;13.30;99.90;;;;;;5009160;28;20393;-75
2022/11/06 11:38:18;;;;;;;4.47;4.07;;;13.10;99.90;;;;;;4995328;28;20442;-74
2022/11/06 11:40:43;;;;;;;4.83;4.23;;;12.50;99.90;;;;;;4991180;28;20398;-75
2022/11/06 11:43:24;;;;;;;5.03;4.03;;;12.00;99.90;;;;;;4988291;28;20390;-75
2022/11/06 11:46:08;;;;;;;4.53;4.10;;;12.10;99.90;;;;;;4986373;28;20481;-75
2022/11/06 11:48:54;;;;;;;6.90;4.70;;;11.70;99.90;;;;;;4990898;28;20425;-75
2022/11/06 11:51:41;;;;;;;5.65;4.38;;;11.60;99.90;;;;;;4991128;28;20413;-74
2022/11/06 11:54:13;;;;;;;4.18;3.88;;;11.50;99.90;;;;;;4990276;28;20425;-74
2022/11/06 11:56:49;;;;;;;5.72;4.00;;;11.50;99.90;;;;;;4989339;28;20386;-74
2022/11/06 11:59:29;;;;;;;5.57;4.30;;;11.10;99.90;;;;;;4986073;28;20417;-74
2022/11/06 12:02:02;;;;;;;5.00;3.72;;;10.80;99.90;;;;;;4985720;28;20413;-74
2022/11/06 12:04:36;;;;;;;5.07;4.38;;;10.60;99.90;;;;;;4991525;28;21098;-74
2022/11/06 12:07:04;;;;;;;4.50;4.10;;;10.80;99.90;;;;;;4984825;28;20426;-74
2022/11/06 12:09:41;;;;;;;4.30;3.90;;;10.50;99.90;;;;;;4991610;28;20507;-74
2022/11/06 12:12:34;;;;;;;4.43;3.83;;;10.70;99.90;;;;;;4989200;28;20489;-75
2022/11/06 12:15:05;;;;;;;4.30;3.90;;;10.60;99.90;;;;;;4985232;28;20449;-74
2022/11/06 12:17:34;;;;;;;5.20;4.50;;;10.10;99.90;;;;;;4983361;28;20403;-74
2022/11/06 12:20:01;;;;;;;5.13;4.63;;;10.40;99.90;;;;;;4987252;28;20410;-74
2022/11/06 12:22:36;;;;;;;5.90;5.15;;;10.40;99.90;;;;;;4987151;28;21152;-76
2022/11/06 12:25:15;;;;;;;5.68;5.03;;;10.50;99.90;;;;;;4984261;28;20434;-73
2022/11/06 12:27:45;;;;;;;6.00;4.78;;;10.30;99.90;;;;;;5000501;28;20987;-75
2022/11/06 12:30:15;;;;;;;5.40;4.90;;;10.00;99.90;;;;;;4987900;28;20407;-76
2022/11/06 12:33:08;;;;;;;5.22;4.80;;;9.90;99.90;;;;;;4980599;28;20420;-74
2022/11/06 12:35:40;;;;;;;5.30;4.80;;;10.00;99.90;;;;;;4991299;28;20500;-74
2022/11/06 12:38:26;;;;;;;5.40;4.90;;;9.80;99.90;;;;;;4987847;28;20409;-77
2022/11/06 12:41:20;;;;;;;5.80;5.20;;;9.90;99.90;;;;;;5000524;28;20403;-74
2022/11/06 12:43:48;;;;;;;6.63;5.65;;;9.90;99.90;;;;;;4995544;28;20890;-73
2022/11/06 12:46:38;;;;;;;6.00;5.40;;;9.80;99.90;;;;;;4992276;28;20417;-73
2022/11/06 12:49:26;;;;;;;6.50;5.20;;;9.70;99.90;;;;;;4988613;28;20399;-73
2022/11/06 12:52:25;;;;;;;6.20;5.50;;;9.60;99.90;;;;;;4991239;28;20492;-73
2022/11/06 12:55:14;;;;;;;7.18;5.60;;;9.60;99.90;;;;;;4997121;28;20420;-73
2022/11/06 12:58:03;;;;;;;7.07;5.78;;;9.60;99.90;;;;;;4983595;28;23362;-75
2022/11/06 13:00:44;;;;;;;5.70;5.20;;;9.70;99.90;;;;;;4995330;28;20481;-74
2022/11/06 13:04:04;;;;;;;;;;;;;;;;;;;;;
2022/11/06 13:06:56;;;;;;;6.60;5.63;;;9.60;99.90;;;;;;4987027;28;20472;-75
2022/11/06 13:09:38;;;;;;;5.53;4.80;;;9.50;99.90;;;;;;4993215;28;20414;-77
2022/11/06 13:12:32;;;;;;;6.28;5.68;;;9.40;99.90;;;;;;4997561;28;21044;-74
2022/11/06 13:15:18;;;;;;;7.57;5.60;;;9.50;99.90;;;;;;5005166;28;20415;-74
2022/11/06 13:18:05;;;;;;;5.28;4.78;;;9.40;99.90;;;;;;4996684;28;20384;-75
2022/11/06 13:20:46;;;;;;;6.22;4.50;;;9.50;99.90;;;;;;4997410;28;20402;-74
2022/11/06 13:23:19;;;;;;;6.40;5.80;;;9.40;99.90;;;;;;4992818;28;20419;-76
2022/11/06 13:25:54;;;;;;;6.57;5.03;;;9.40;99.90;;;;;;4991225;28;20405;-75
2022/11/06 13:28:26;;;;;;;6.82;4.95;;;9.50;99.90;;;;;;4995182;28;20417;-74
2022/11/06 13:30:52;;;;;;;5.90;5.30;;;9.70;99.90;;;;;;4991819;28;20915;-75
2022/11/06 13:33:31;;;;;;;5.20;4.70;;;10.40;99.90;;;;;;4982518;28;20414;-76
2022/11/06 13:35:58;;;;;;;6.65;4.80;;;11.60;99.90;;;;;;4987903;28;20494;-75